Airfield :
LOGIN :

Register | Disclaimer

   EN    FR    IT 

 










Legend :    VFR   Marginal VFR   IFR   Intensive IFR   Very Intensive IFR
Visi :
Ceiling :
>= 8 km
>= 3000ft
5 to 8 km
1000 to 3000 ft
1500m to 5 km
500 to 1000 ft
800 to 1500m
200 to 500 ft
< 800m
< 200 ft
Symbols :   Thunderstorms  Fog  Heavy snow  Heavy precipitations  Wind > 20 kt
SIGMETs :     Misc.  Thunderstorms  Icing  Turbulence  Mountain Waves  Volcanic Ashes






- Airport Elevation : 1416 ft
- IATA code : ZRH


LSZH - Zurich

CURRENT METAR :
  • 271750Z 23007KT 190V250 CAVOK 08/01 Q1010 NOSIG

EXPIRED METARs :
  • 271720Z 22006KT 9999 FEW065 BKN070 08/01 Q1010 NOSIG
  • 271650Z 21006KT 170V230 9999 FEW050 BKN060 08/01 Q1011 NOSIG
  • 271620Z 21006KT 9999 FEW060 BKN065 08/02 Q1011 NOSIG
  • 271550Z 20008KT 180V240 9999 FEW075 08/02 Q1011 NOSIG
  • 271520Z 23008KT 200V260 9999 FEW065 08/02 Q1012 NOSIG

TAF TAF LSZH
Valid from the 27 at 18:00 until the 29 at 00:00 UTC


271725Z 2718/2824 21006KT 9999 FEW050 BKN060 TX07/2811Z TN03/2804Z
TEMPO 2719/2810 RA
BECMG 2720/2723 22010KT
TEMPO 2806/2817 24015G30KT
PROB40
TEMPO 2807/2815 25020G40KT
PROB40
TEMPO 2808/2824 2000 SHSNRA BKN010 SCT015TCU
PROB30
TEMPO 2808/2817 1500 TSGS SCT015CB
TEMPO 2817/2824 24012G25KT
ATIS : +41 43 816 2295 (DEP) +41 43 816 2294 (ARR)



MET'MAP, your aeronautical weather chart ! - Copyright ORBIFLY December 2007 - Disclaimer

ORBIFLY MET'MAP TEAM :

Programming & Development : Alexandra Zaïnal
Concept & original design : Baudouin d'Aumeries
Assistance for programming : Marc-Olivier Méhu
Technical & hardware support : Manuel Goepfert

Contact : metmap@orbifly.com




SOURCES & CREDITS :

   NOAA